sensor_id;sensor_type;location;lat;lon;timestamp;temperature;humidity
10300;DHT22;5195;48.562;9.192;2022-12-28T00:01:41;5.40;54.80
10300;DHT22;5195;48.562;9.192;2022-12-28T00:04:17;5.30;54.90
10300;DHT22;5195;48.562;9.192;2022-12-28T00:06:53;5.30;55.00
10300;DHT22;5195;48.562;9.192;2022-12-28T00:09:29;5.30;56.00
10300;DHT22;5195;48.562;9.192;2022-12-28T00:12:05;5.20;55.10
10300;DHT22;5195;48.562;9.192;2022-12-28T00:14:41;5.70;53.60
10300;DHT22;5195;48.562;9.192;2022-12-28T00:17:18;5.70;53.50
10300;DHT22;5195;48.562;9.192;2022-12-28T00:19:55;5.50;53.80
10300;DHT22;5195;48.562;9.192;2022-12-28T00:22:30;5.10;54.50
10300;DHT22;5195;48.562;9.192;2022-12-28T00:25:06;5.10;54.50
10300;DHT22;5195;48.562;9.192;2022-12-28T00:27:42;5.40;54.00
10300;DHT22;5195;48.562;9.192;2022-12-28T00:30:17;5.60;53.30
10300;DHT22;5195;48.562;9.192;2022-12-28T00:32:54;5.80;52.90
10300;DHT22;5195;48.562;9.192;2022-12-28T00:35:30;5.50;53.30
10300;DHT22;5195;48.562;9.192;2022-12-28T00:38:05;5.50;53.80
10300;DHT22;5195;48.562;9.192;2022-12-28T00:40:41;5.70;53.50
10300;DHT22;5195;48.562;9.192;2022-12-28T00:43:18;5.50;53.70
10300;DHT22;5195;48.562;9.192;2022-12-28T00:45:53;5.50;54.00
10300;DHT22;5195;48.562;9.192;2022-12-28T00:48:29;5.30;54.10
10300;DHT22;5195;48.562;9.192;2022-12-28T00:51:13;5.40;54.90
10300;DHT22;5195;48.562;9.192;2022-12-28T00:53:48;5.40;55.40
10300;DHT22;5195;48.562;9.192;2022-12-28T00:56:23;5.40;55.40
10300;DHT22;5195;48.562;9.192;2022-12-28T00:58:59;5.40;55.50
10300;DHT22;5195;48.562;9.192;2022-12-28T01:01:34;5.20;56.00
10300;DHT22;5195;48.562;9.192;2022-12-28T01:04:10;5.00;56.60
10300;DHT22;5195;48.562;9.192;2022-12-28T01:06:46;4.80;56.90
10300;DHT22;5195;48.562;9.192;2022-12-28T01:09:22;5.00;57.30
10300;DHT22;5195;48.562;9.192;2022-12-28T01:11:59;5.00;57.30
10300;DHT22;5195;48.562;9.192;2022-12-28T01:14:36;5.10;57.10
10300;DHT22;5195;48.562;9.192;2022-12-28T01:17:11;5.30;56.60
10300;DHT22;5195;48.562;9.192;2022-12-28T01:19:47;5.70;55.70
10300;DHT22;5195;48.562;9.192;2022-12-28T01:22:22;5.70;55.60
10300;DHT22;5195;48.562;9.192;2022-12-28T01:24:59;5.80;55.20
10300;DHT22;5195;48.562;9.192;2022-12-28T01:27:35;5.70;55.30
10300;DHT22;5195;48.562;9.192;2022-12-28T01:30:12;5.50;55.80
10300;DHT22;5195;48.562;9.192;2022-12-28T01:32:46;5.30;56.40
10300;DHT22;5195;48.562;9.192;2022-12-28T01:35:22;5.10;56.80
10300;DHT22;5195;48.562;9.192;2022-12-28T01:37:58;5.00;57.20
10300;DHT22;5195;48.562;9.192;2022-12-28T01:40:34;5.30;56.90
10300;DHT22;5195;48.562;9.192;2022-12-28T01:43:12;5.30;56.70
10300;DHT22;5195;48.562;9.192;2022-12-28T01:45:47;5.20;57.10
10300;DHT22;5195;48.562;9.192;2022-12-28T01:48:22;5.40;57.50
10300;DHT22;5195;48.562;9.192;2022-12-28T01:50:56;5.80;55.70
10300;DHT22;5195;48.562;9.192;2022-12-28T01:53:33;5.80;55.60
10300;DHT22;5195;48.562;9.192;2022-12-28T01:56:09;5.90;55.20
10300;DHT22;5195;48.562;9.192;2022-12-28T01:58:45;6.20;54.90
10300;DHT22;5195;48.562;9.192;2022-12-28T02:01:21;6.40;53.60
10300;DHT22;5195;48.562;9.192;2022-12-28T02:03:57;6.80;52.90
10300;DHT22;5195;48.562;9.192;2022-12-28T02:06:33;6.70;52.70
10300;DHT22;5195;48.562;9.192;2022-12-28T02:09:19;6.90;52.40
10300;DHT22;5195;48.562;9.192;2022-12-28T02:11:54;6.70;52.90
10300;DHT22;5195;48.562;9.192;2022-12-28T02:14:29;6.30;53.90
10300;DHT22;5195;48.562;9.192;2022-12-28T02:17:06;6.00;54.70
10300;DHT22;5195;48.562;9.192;2022-12-28T02:19:47;5.80;55.40
10300;DHT22;5195;48.562;9.192;2022-12-28T02:22:43;5.70;55.90
10300;DHT22;5195;48.562;9.192;2022-12-28T02:31:25;6.80;52.80
10300;DHT22;5195;48.562;9.192;2022-12-28T02:34:01;7.00;51.90
10300;DHT22;5195;48.562;9.192;2022-12-28T02:36:38;6.90;52.50
10300;DHT22;5195;48.562;9.192;2022-12-28T02:39:11;6.90;52.30
10300;DHT22;5195;48.562;9.192;2022-12-28T02:41:45;6.80;52.60
10300;DHT22;5195;48.562;9.192;2022-12-28T02:44:20;6.80;52.60
10300;DHT22;5195;48.562;9.192;2022-12-28T02:47:18;6.40;53.50
10300;DHT22;5195;48.562;9.192;2022-12-28T02:50:14;6.40;53.50
10300;DHT22;5195;48.562;9.192;2022-12-28T02:55:54;6.30;54.00
10300;DHT22;5195;48.562;9.192;2022-12-28T02:58:57;6.30;54.20
10300;DHT22;5195;48.562;9.192;2022-12-28T03:08:00;6.70;52.90
10300;DHT22;5195;48.562;9.192;2022-12-28T03:11:09;7.40;51.50
10300;DHT22;5195;48.562;9.192;2022-12-28T03:16:33;7.50;51.10
10300;DHT22;5195;48.562;9.192;2022-12-28T03:19:09;7.70;50.80
10300;DHT22;5195;48.562;9.192;2022-12-28T03:22:06;7.50;51.20
10300;DHT22;5195;48.562;9.192;2022-12-28T03:25:03;7.30;51.70
10300;DHT22;5195;48.562;9.192;2022-12-28T03:27:58;6.90;52.50
10300;DHT22;5195;48.562;9.192;2022-12-28T03:30:54;6.90;52.50
10300;DHT22;5195;48.562;9.192;2022-12-28T03:33:49;7.10;52.60
10300;DHT22;5195;48.562;9.192;2022-12-28T03:36:28;7.40;51.40
10300;DHT22;5195;48.562;9.192;2022-12-28T03:41:54;7.40;51.30
10300;DHT22;5195;48.562;9.192;2022-12-28T03:44:51;7.50;50.90
10300;DHT22;5195;48.562;9.192;2022-12-28T03:47:26;7.50;50.60
10300;DHT22;5195;48.562;9.192;2022-12-28T03:50:03;7.50;50.60
10300;DHT22;5195;48.562;9.192;2022-12-28T03:52:38;7.50;50.60
10300;DHT22;5195;48.562;9.192;2022-12-28T03:55:14;7.70;49.90
10300;DHT22;5195;48.562;9.192;2022-12-28T03:57:49;7.90;49.60
10300;DHT22;5195;48.562;9.192;2022-12-28T04:00:25;8.00;49.60
10300;DHT22;5195;48.562;9.192;2022-12-28T04:03:02;7.70;50.20
10300;DHT22;5195;48.562;9.192;2022-12-28T04:05:38;7.30;51.00
10300;DHT22;5195;48.562;9.192;2022-12-28T04:08:14;7.30;51.30
10300;DHT22;5195;48.562;9.192;2022-12-28T04:10:49;7.50;50.80
10300;DHT22;5195;48.562;9.192;2022-12-28T04:13:32;7.40;51.30
10300;DHT22;5195;48.562;9.192;2022-12-28T04:16:09;7.10;52.00
10300;DHT22;5195;48.562;9.192;2022-12-28T04:18:43;7.10;52.30
10300;DHT22;5195;48.562;9.192;2022-12-28T04:21:19;7.40;52.10
10300;DHT22;5195;48.562;9.192;2022-12-28T04:23:54;7.30;52.30
10300;DHT22;5195;48.562;9.192;2022-12-28T04:26:30;6.90;52.80
10300;DHT22;5195;48.562;9.192;2022-12-28T04:29:05;6.70;53.40
10300;DHT22;5195;48.562;9.192;2022-12-28T04:31:41;6.50;54.00
10300;DHT22;5195;48.562;9.192;2022-12-28T04:34:18;6.30;54.40
10300;DHT22;5195;48.562;9.192;2022-12-28T04:36:56;6.80;53.30
10300;DHT22;5195;48.562;9.192;2022-12-28T04:39:31;6.80;53.30
10300;DHT22;5195;48.562;9.192;2022-12-28T04:42:07;7.10;52.80
10300;DHT22;5195;48.562;9.192;2022-12-28T04:44:43;7.00;52.70
10300;DHT22;5195;48.562;9.192;2022-12-28T04:47:19;7.00;52.70
10300;DHT22;5195;48.562;9.192;2022-12-28T04:49:55;7.50;51.50
10300;DHT22;5195;48.562;9.192;2022-12-28T04:52:32;7.40;51.40
10300;DHT22;5195;48.562;9.192;2022-12-28T04:55:06;7.20;51.90
10300;DHT22;5195;48.562;9.192;2022-12-28T04:57:42;6.90;52.80
10300;DHT22;5195;48.562;9.192;2022-12-28T05:00:17;6.90;52.90
10300;DHT22;5195;48.562;9.192;2022-12-28T05:02:56;6.80;53.20
10300;DHT22;5195;48.562;9.192;2022-12-28T05:05:30;6.90;53.10
10300;DHT22;5195;48.562;9.192;2022-12-28T05:08:05;7.20;52.60
10300;DHT22;5195;48.562;9.192;2022-12-28T05:10:43;7.30;52.40
10300;DHT22;5195;48.562;9.192;2022-12-28T05:13:19;6.90;53.10
10300;DHT22;5195;48.562;9.192;2022-12-28T05:15:59;6.90;53.10
10300;DHT22;5195;48.562;9.192;2022-12-28T05:18:30;7.00;53.20
10300;DHT22;5195;48.562;9.192;2022-12-28T05:21:07;7.00;53.50
10300;DHT22;5195;48.562;9.192;2022-12-28T05:23:41;6.80;54.10
10300;DHT22;5195;48.562;9.192;2022-12-28T05:26:18;6.90;53.70
10300;DHT22;5195;48.562;9.192;2022-12-28T05:28:53;6.90;53.80
10300;DHT22;5195;48.562;9.192;2022-12-28T05:31:28;6.80;54.40
10300;DHT22;5195;48.562;9.192;2022-12-28T05:34:04;6.60;54.80
10300;DHT22;5195;48.562;9.192;2022-12-28T05:36:39;6.50;55.10
10300;DHT22;5195;48.562;9.192;2022-12-28T05:39:15;6.70;54.60
10300;DHT22;5195;48.562;9.192;2022-12-28T05:41:50;6.70;54.50
10300;DHT22;5195;48.562;9.192;2022-12-28T05:44:26;6.60;54.90
10300;DHT22;5195;48.562;9.192;2022-12-28T05:47:01;6.50;55.30
10300;DHT22;5195;48.562;9.192;2022-12-28T05:49:37;6.30;55.60
10300;DHT22;5195;48.562;9.192;2022-12-28T05:52:13;6.50;55.10
10300;DHT22;5195;48.562;9.192;2022-12-28T05:54:49;6.50;55.10
10300;DHT22;5195;48.562;9.192;2022-12-28T05:57:24;6.90;54.00
10300;DHT22;5195;48.562;9.192;2022-12-28T06:00:00;6.90;54.00
10300;DHT22;5195;48.562;9.192;2022-12-28T06:02:36;7.00;53.70
10300;DHT22;5195;48.562;9.192;2022-12-28T06:05:11;7.30;52.80
10300;DHT22;5195;48.562;9.192;2022-12-28T06:07:47;7.20;53.00
10300;DHT22;5195;48.562;9.192;2022-12-28T06:10:23;6.90;53.20
10300;DHT22;5195;48.562;9.192;2022-12-28T06:12:59;6.90;53.20
10300;DHT22;5195;48.562;9.192;2022-12-28T06:15:34;6.80;53.40
10300;DHT22;5195;48.562;9.192;2022-12-28T06:18:10;6.60;54.00
10300;DHT22;5195;48.562;9.192;2022-12-28T06:20:45;6.30;54.50
10300;DHT22;5195;48.562;9.192;2022-12-28T06:23:21;6.20;55.00
10300;DHT22;5195;48.562;9.192;2022-12-28T06:25:58;6.30;54.40
10300;DHT22;5195;48.562;9.192;2022-12-28T06:28:36;6.30;54.40
10300;DHT22;5195;48.562;9.192;2022-12-28T06:31:13;6.20;54.80
10300;DHT22;5195;48.562;9.192;2022-12-28T06:33:48;6.30;54.30
10300;DHT22;5195;48.562;9.192;2022-12-28T06:36:24;6.30;54.30
10300;DHT22;5195;48.562;9.192;2022-12-28T06:38:59;6.10;54.70
10300;DHT22;5195;48.562;9.192;2022-12-28T06:41:35;6.00;55.30
10300;DHT22;5195;48.562;9.192;2022-12-28T06:44:10;5.80;55.70
10300;DHT22;5195;48.562;9.192;2022-12-28T06:46:46;5.70;57.00
10300;DHT22;5195;48.562;9.192;2022-12-28T06:49:21;5.70;56.40
10300;DHT22;5195;48.562;9.192;2022-12-28T06:51:57;5.90;56.20
10300;DHT22;5195;48.562;9.192;2022-12-28T06:54:34;6.00;56.00
10300;DHT22;5195;48.562;9.192;2022-12-28T06:57:10;5.80;56.50
10300;DHT22;5195;48.562;9.192;2022-12-28T06:59:46;5.80;56.50
10300;DHT22;5195;48.562;9.192;2022-12-28T07:02:21;5.80;56.80
10300;DHT22;5195;48.562;9.192;2022-12-28T07:04:57;6.00;56.30
10300;DHT22;5195;48.562;9.192;2022-12-28T07:07:32;6.10;56.10
10300;DHT22;5195;48.562;9.192;2022-12-28T07:10:09;6.20;55.80
10300;DHT22;5195;48.562;9.192;2022-12-28T07:12:44;6.20;55.80
10300;DHT22;5195;48.562;9.192;2022-12-28T07:15:20;6.30;55.70
10300;DHT22;5195;48.562;9.192;2022-12-28T07:17:56;6.20;56.10
10300;DHT22;5195;48.562;9.192;2022-12-28T07:20:31;6.00;56.40
10300;DHT22;5195;48.562;9.192;2022-12-28T07:23:07;6.20;55.80
10300;DHT22;5195;48.562;9.192;2022-12-28T07:25:44;6.30;55.80
10300;DHT22;5195;48.562;9.192;2022-12-28T07:28:19;6.20;56.10
10300;DHT22;5195;48.562;9.192;2022-12-28T07:30:56;6.00;56.40
10300;DHT22;5195;48.562;9.192;2022-12-28T07:33:32;5.90;56.80
10300;DHT22;5195;48.562;9.192;2022-12-28T07:36:09;5.80;57.10
10300;DHT22;5195;48.562;9.192;2022-12-28T07:39:03;6.10;56.40
10300;DHT22;5195;48.562;9.192;2022-12-28T07:41:39;6.60;55.50
10300;DHT22;5195;48.562;9.192;2022-12-28T07:44:15;6.60;55.40
10300;DHT22;5195;48.562;9.192;2022-12-28T07:46:52;6.70;55.50
10300;DHT22;5195;48.562;9.192;2022-12-28T07:49:27;6.60;55.40
10300;DHT22;5195;48.562;9.192;2022-12-28T07:52:03;7.00;54.30
10300;DHT22;5195;48.562;9.192;2022-12-28T07:54:39;7.30;53.10
10300;DHT22;5195;48.562;9.192;2022-12-28T07:57:14;7.60;53.10
10300;DHT22;5195;48.562;9.192;2022-12-28T07:59:50;7.50;53.40
10300;DHT22;5195;48.562;9.192;2022-12-28T08:02:26;7.30;54.20
10300;DHT22;5195;48.562;9.192;2022-12-28T08:05:02;7.30;54.20
10300;DHT22;5195;48.562;9.192;2022-12-28T08:07:37;7.30;54.40
10300;DHT22;5195;48.562;9.192;2022-12-28T08:10:13;7.50;54.00
10300;DHT22;5195;48.562;9.192;2022-12-28T08:12:48;7.40;54.10
10300;DHT22;5195;48.562;9.192;2022-12-28T08:15:24;7.60;53.70
10300;DHT22;5195;48.562;9.192;2022-12-28T08:18:00;7.90;53.10
10300;DHT22;5195;48.562;9.192;2022-12-28T08:20:36;8.20;52.50
10300;DHT22;5195;48.562;9.192;2022-12-28T08:23:11;8.10;52.90
10300;DHT22;5195;48.562;9.192;2022-12-28T08:25:46;8.10;52.60
10300;DHT22;5195;48.562;9.192;2022-12-28T08:28:22;8.30;52.00
10300;DHT22;5195;48.562;9.192;2022-12-28T08:31:02;8.20;52.50
10300;DHT22;5195;48.562;9.192;2022-12-28T08:33:33;8.20;52.10
10300;DHT22;5195;48.562;9.192;2022-12-28T08:36:09;8.50;51.70
10300;DHT22;5195;48.562;9.192;2022-12-28T08:38:45;8.10;53.00
10300;DHT22;5195;48.562;9.192;2022-12-28T08:41:21;8.10;53.00
10300;DHT22;5195;48.562;9.192;2022-12-28T08:43:56;8.10;52.80
10300;DHT22;5195;48.562;9.192;2022-12-28T08:46:32;8.40;51.90
10300;DHT22;5195;48.562;9.192;2022-12-28T08:49:07;8.70;51.40
10300;DHT22;5195;48.562;9.192;2022-12-28T08:51:43;8.90;51.00
10300;DHT22;5195;48.562;9.192;2022-12-28T08:54:19;9.10;51.00
10300;DHT22;5195;48.562;9.192;2022-12-28T08:56:54;9.20;50.60
10300;DHT22;5195;48.562;9.192;2022-12-28T08:59:30;9.30;50.30
10300;DHT22;5195;48.562;9.192;2022-12-28T09:02:05;9.40;50.20
10300;DHT22;5195;48.562;9.192;2022-12-28T09:04:41;9.20;50.90
10300;DHT22;5195;48.562;9.192;2022-12-28T09:07:17;8.90;51.80
10300;DHT22;5195;48.562;9.192;2022-12-28T09:09:53;8.70;52.30
10300;DHT22;5195;48.562;9.192;2022-12-28T09:12:28;8.70;52.30
10300;DHT22;5195;48.562;9.192;2022-12-28T09:15:04;8.70;52.70
10300;DHT22;5195;48.562;9.192;2022-12-28T09:17:41;8.50;53.90
10300;DHT22;5195;48.562;9.192;2022-12-28T09:20:16;8.50;53.90
10300;DHT22;5195;48.562;9.192;2022-12-28T09:22:53;8.40;54.30
10300;DHT22;5195;48.562;9.192;2022-12-28T09:25:29;8.30;55.60
10300;DHT22;5195;48.562;9.192;2022-12-28T09:28:06;8.30;55.00
10300;DHT22;5195;48.562;9.192;2022-12-28T09:30:46;8.30;55.20
10300;DHT22;5195;48.562;9.192;2022-12-28T09:33:22;8.30;55.70
10300;DHT22;5195;48.562;9.192;2022-12-28T09:36:19;8.30;55.90
10300;DHT22;5195;48.562;9.192;2022-12-28T09:38:54;8.30;55.90
10300;DHT22;5195;48.562;9.192;2022-12-28T09:41:51;8.40;56.00
10300;DHT22;5195;48.562;9.192;2022-12-28T09:52:32;8.90;54.50
10300;DHT22;5195;48.562;9.192;2022-12-28T09:55:11;8.90;54.90
10300;DHT22;5195;48.562;9.192;2022-12-28T09:57:55;9.20;53.70
10300;DHT22;5195;48.562;9.192;2022-12-28T10:00:38;9.50;54.00
10300;DHT22;5195;48.562;9.192;2022-12-28T10:03:16;9.70;51.90
10300;DHT22;5195;48.562;9.192;2022-12-28T10:05:51;9.80;52.30
10300;DHT22;5195;48.562;9.192;2022-12-28T10:08:26;10.00;50.00
10300;DHT22;5195;48.562;9.192;2022-12-28T10:11:03;10.40;49.30
10300;DHT22;5195;48.562;9.192;2022-12-28T10:13:40;10.40;49.80
10300;DHT22;5195;48.562;9.192;2022-12-28T10:16:17;10.60;49.40
10300;DHT22;5195;48.562;9.192;2022-12-28T10:18:51;10.60;50.20
10300;DHT22;5195;48.562;9.192;2022-12-28T10:21:29;10.60;50.80
10300;DHT22;5195;48.562;9.192;2022-12-28T10:24:04;10.50;51.30
10300;DHT22;5195;48.562;9.192;2022-12-28T10:26:41;10.80;49.40
10300;DHT22;5195;48.562;9.192;2022-12-28T10:29:19;11.40;48.80
10300;DHT22;5195;48.562;9.192;2022-12-28T10:34:44;11.90;47.00
10300;DHT22;5195;48.562;9.192;2022-12-28T10:37:15;11.80;47.40
10300;DHT22;5195;48.562;9.192;2022-12-28T10:40:04;11.80;47.40
10300;DHT22;5195;48.562;9.192;2022-12-28T10:42:39;11.60;48.40
10300;DHT22;5195;48.562;9.192;2022-12-28T10:45:18;11.30;49.30
10300;DHT22;5195;48.562;9.192;2022-12-28T10:47:54;11.20;50.00
10300;DHT22;5195;48.562;9.192;2022-12-28T10:50:42;11.50;49.20
10300;DHT22;5195;48.562;9.192;2022-12-28T10:53:35;11.40;49.10
10300;DHT22;5195;48.562;9.192;2022-12-28T10:58:48;11.60;49.10
10300;DHT22;5195;48.562;9.192;2022-12-28T11:01:27;11.70;50.20
10300;DHT22;5195;48.562;9.192;2022-12-28T11:04:07;11.60;51.00
10300;DHT22;5195;48.562;9.192;2022-12-28T11:06:56;11.60;50.30
10300;DHT22;5195;48.562;9.192;2022-12-28T11:09:39;11.60;50.90
10300;DHT22;5195;48.562;9.192;2022-12-28T11:12:24;11.60;51.10
10300;DHT22;5195;48.562;9.192;2022-12-28T11:14:58;11.50;50.90
10300;DHT22;5195;48.562;9.192;2022-12-28T11:17:36;11.40;51.10
10300;DHT22;5195;48.562;9.192;2022-12-28T11:20:18;11.60;48.60
10300;DHT22;5195;48.562;9.192;2022-12-28T11:22:53;12.00;47.30
10300;DHT22;5195;48.562;9.192;2022-12-28T11:25:30;12.30;47.20
10300;DHT22;5195;48.562;9.192;2022-12-28T11:28:05;12.60;46.50
10300;DHT22;5195;48.562;9.192;2022-12-28T11:30:41;12.80;46.00
10300;DHT22;5195;48.562;9.192;2022-12-28T11:36:15;13.20;46.00
10300;DHT22;5195;48.562;9.192;2022-12-28T11:38:51;13.30;45.30
10300;DHT22;5195;48.562;9.192;2022-12-28T11:44:04;13.50;44.30
10300;DHT22;5195;48.562;9.192;2022-12-28T11:46:39;13.50;44.30
10300;DHT22;5195;48.562;9.192;2022-12-28T11:49:30;12.90;46.80
10300;DHT22;5195;48.562;9.192;2022-12-28T11:54:57;12.80;44.60
10300;DHT22;5195;48.562;9.192;2022-12-28T11:57:40;13.20;44.70
10300;DHT22;5195;48.562;9.192;2022-12-28T12:02:51;13.30;44.30
10300;DHT22;5195;48.562;9.192;2022-12-28T12:13:50;13.30;44.70
10300;DHT22;5195;48.562;9.192;2022-12-28T12:19:01;13.20;45.40
10300;DHT22;5195;48.562;9.192;2022-12-28T12:21:38;12.80;47.20
10300;DHT22;5195;48.562;9.192;2022-12-28T12:24:17;12.50;47.40
10300;DHT22;5195;48.562;9.192;2022-12-28T12:26:52;12.60;46.30
10300;DHT22;5195;48.562;9.192;2022-12-28T12:29:38;12.60;46.90
10300;DHT22;5195;48.562;9.192;2022-12-28T12:34:55;12.10;48.10
10300;DHT22;5195;48.562;9.192;2022-12-28T12:40:52;12.10;47.50
10300;DHT22;5195;48.562;9.192;2022-12-28T12:43:51;11.90;48.30
10300;DHT22;5195;48.562;9.192;2022-12-28T12:52:18;12.10;46.60
10300;DHT22;5195;48.562;9.192;2022-12-28T12:57:56;12.50;47.20
10300;DHT22;5195;48.562;9.192;2022-12-28T13:01:02;12.20;48.40
10300;DHT22;5195;48.562;9.192;2022-12-28T13:03:53;12.10;48.60
10300;DHT22;5195;48.562;9.192;2022-12-28T13:06:23;12.00;49.20
10300;DHT22;5195;48.562;9.192;2022-12-28T13:08:59;12.20;47.00
10300;DHT22;5195;48.562;9.192;2022-12-28T13:11:35;12.30;47.60
10300;DHT22;5195;48.562;9.192;2022-12-28T13:14:21;12.10;48.10
10300;DHT22;5195;48.562;9.192;2022-12-28T13:16:57;12.00;48.70
10300;DHT22;5195;48.562;9.192;2022-12-28T13:19:31;11.90;49.10
10300;DHT22;5195;48.562;9.192;2022-12-28T13:22:13;11.70;49.20
10300;DHT22;5195;48.562;9.192;2022-12-28T13:24:43;12.00;47.60
10300;DHT22;5195;48.562;9.192;2022-12-28T13:27:18;12.30;46.00
10300;DHT22;5195;48.562;9.192;2022-12-28T13:29:53;12.30;46.70
10300;DHT22;5195;48.562;9.192;2022-12-28T13:32:36;12.60;44.50
10300;DHT22;5195;48.562;9.192;2022-12-28T13:35:20;12.60;44.50
10300;DHT22;5195;48.562;9.192;2022-12-28T13:40:50;12.60;45.30
10300;DHT22;5195;48.562;9.192;2022-12-28T13:46:41;12.30;45.90
10300;DHT22;5195;48.562;9.192;2022-12-28T13:49:17;12.10;46.80
10300;DHT22;5195;48.562;9.192;2022-12-28T13:51:52;11.90;47.60
10300;DHT22;5195;48.562;9.192;2022-12-28T13:54:28;11.70;48.20
10300;DHT22;5195;48.562;9.192;2022-12-28T13:57:06;11.50;48.70
10300;DHT22;5195;48.562;9.192;2022-12-28T13:59:41;11.30;49.00
10300;DHT22;5195;48.562;9.192;2022-12-28T14:02:17;11.20;49.30
10300;DHT22;5195;48.562;9.192;2022-12-28T14:04:52;11.10;49.60
10300;DHT22;5195;48.562;9.192;2022-12-28T14:07:29;11.20;48.90
10300;DHT22;5195;48.562;9.192;2022-12-28T14:10:04;11.20;48.30
10300;DHT22;5195;48.562;9.192;2022-12-28T14:12:40;11.30;48.70
10300;DHT22;5195;48.562;9.192;2022-12-28T14:15:16;11.10;49.10
10300;DHT22;5195;48.562;9.192;2022-12-28T14:17:51;11.30;48.00
10300;DHT22;5195;48.562;9.192;2022-12-28T14:20:28;11.70;47.30
10300;DHT22;5195;48.562;9.192;2022-12-28T14:23:23;12.00;46.60
10300;DHT22;5195;48.562;9.192;2022-12-28T14:26:02;11.80;47.20
10300;DHT22;5195;48.562;9.192;2022-12-28T14:28:34;11.90;46.70
10300;DHT22;5195;48.562;9.192;2022-12-28T14:31:12;12.10;46.10
10300;DHT22;5195;48.562;9.192;2022-12-28T14:36:29;11.60;47.60
10300;DHT22;5195;48.562;9.192;2022-12-28T14:39:03;11.30;48.40
10300;DHT22;5195;48.562;9.192;2022-12-28T14:41:40;10.90;49.40
10300;DHT22;5195;48.562;9.192;2022-12-28T14:44:23;10.90;49.40
10300;DHT22;5195;48.562;9.192;2022-12-28T14:46:54;10.70;49.70
10300;DHT22;5195;48.562;9.192;2022-12-28T14:49:31;10.60;50.00
10300;DHT22;5195;48.562;9.192;2022-12-28T14:54:51;10.90;49.30
10300;DHT22;5195;48.562;9.192;2022-12-28T14:57:39;11.10;48.50
10300;DHT22;5195;48.562;9.192;2022-12-28T15:02:55;11.20;48.10
10300;DHT22;5195;48.562;9.192;2022-12-28T15:08:12;11.30;47.90
10300;DHT22;5195;48.562;9.192;2022-12-28T15:10:50;11.40;48.10
10300;DHT22;5195;48.562;9.192;2022-12-28T15:13:24;11.20;48.40
10300;DHT22;5195;48.562;9.192;2022-12-28T15:16:00;10.90;49.00
10300;DHT22;5195;48.562;9.192;2022-12-28T15:18:36;10.60;49.50
10300;DHT22;5195;48.562;9.192;2022-12-28T15:21:15;10.30;49.90
10300;DHT22;5195;48.562;9.192;2022-12-28T15:23:50;10.10;50.30
10300;DHT22;5195;48.562;9.192;2022-12-28T15:26:25;10.30;49.60
10300;DHT22;5195;48.562;9.192;2022-12-28T15:29:04;10.30;49.80
10300;DHT22;5195;48.562;9.192;2022-12-28T15:31:41;10.40;49.00
10300;DHT22;5195;48.562;9.192;2022-12-28T15:34:18;10.40;49.40
10300;DHT22;5195;48.562;9.192;2022-12-28T15:36:53;10.10;49.90
10300;DHT22;5195;48.562;9.192;2022-12-28T15:39:29;9.90;51.40
10300;DHT22;5195;48.562;9.192;2022-12-28T15:42:05;10.00;49.30
10300;DHT22;5195;48.562;9.192;2022-12-28T15:44:40;10.00;49.60
10300;DHT22;5195;48.562;9.192;2022-12-28T15:47:18;9.90;50.10
10300;DHT22;5195;48.562;9.192;2022-12-28T15:49:55;9.90;50.10
10300;DHT22;5195;48.562;9.192;2022-12-28T15:52:30;9.90;51.10
10300;DHT22;5195;48.562;9.192;2022-12-28T15:55:06;10.00;48.40
10300;DHT22;5195;48.562;9.192;2022-12-28T15:57:42;10.10;48.20
10300;DHT22;5195;48.562;9.192;2022-12-28T16:00:18;10.10;48.20
10300;DHT22;5195;48.562;9.192;2022-12-28T16:02:53;10.40;48.10
10300;DHT22;5195;48.562;9.192;2022-12-28T16:05:29;10.60;46.90
10300;DHT22;5195;48.562;9.192;2022-12-28T16:08:05;10.40;47.60
10300;DHT22;5195;48.562;9.192;2022-12-28T16:10:40;10.10;48.50
10300;DHT22;5195;48.562;9.192;2022-12-28T16:13:16;9.80;50.10
10300;DHT22;5195;48.562;9.192;2022-12-28T16:15:51;9.90;49.20
10300;DHT22;5195;48.562;9.192;2022-12-28T16:18:27;10.20;47.70
10300;DHT22;5195;48.562;9.192;2022-12-28T16:21:04;10.10;48.20
10300;DHT22;5195;48.562;9.192;2022-12-28T16:23:39;9.80;49.90
10300;DHT22;5195;48.562;9.192;2022-12-28T16:26:14;9.60;50.50
10300;DHT22;5195;48.562;9.192;2022-12-28T16:28:49;9.40;51.00
10300;DHT22;5195;48.562;9.192;2022-12-28T16:31:28;9.60;50.10
10300;DHT22;5195;48.562;9.192;2022-12-28T16:34:13;10.20;47.10
10300;DHT22;5195;48.562;9.192;2022-12-28T16:36:47;10.20;47.10
10300;DHT22;5195;48.562;9.192;2022-12-28T16:39:23;10.10;47.70
10300;DHT22;5195;48.562;9.192;2022-12-28T16:41:58;10.10;47.20
10300;DHT22;5195;48.562;9.192;2022-12-28T16:44:34;10.00;47.70
10300;DHT22;5195;48.562;9.192;2022-12-28T16:47:11;9.70;49.30
10300;DHT22;5195;48.562;9.192;2022-12-28T16:49:46;9.50;50.00
10300;DHT22;5195;48.562;9.192;2022-12-28T16:52:22;9.30;50.50
10300;DHT22;5195;48.562;9.192;2022-12-28T16:54:57;9.20;50.80
10300;DHT22;5195;48.562;9.192;2022-12-28T16:57:33;9.40;49.40
10300;DHT22;5195;48.562;9.192;2022-12-28T17:00:11;9.80;48.70
10300;DHT22;5195;48.562;9.192;2022-12-28T17:02:46;10.10;46.90
10300;DHT22;5195;48.562;9.192;2022-12-28T17:05:23;10.00;47.40
10300;DHT22;5195;48.562;9.192;2022-12-28T17:07:59;10.00;47.00
10300;DHT22;5195;48.562;9.192;2022-12-28T17:10:36;9.90;48.60
10300;DHT22;5195;48.562;9.192;2022-12-28T17:13:11;9.70;48.80
10300;DHT22;5195;48.562;9.192;2022-12-28T17:15:46;9.80;48.90
10300;DHT22;5195;48.562;9.192;2022-12-28T17:18:22;10.00;47.50
10300;DHT22;5195;48.562;9.192;2022-12-28T17:20:57;10.30;47.30
10300;DHT22;5195;48.562;9.192;2022-12-28T17:23:33;10.10;48.30
10300;DHT22;5195;48.562;9.192;2022-12-28T17:26:08;9.90;50.30
10300;DHT22;5195;48.562;9.192;2022-12-28T17:28:44;10.00;48.40
10300;DHT22;5195;48.562;9.192;2022-12-28T17:31:20;10.30;47.40
10300;DHT22;5195;48.562;9.192;2022-12-28T17:33:56;10.20;47.60
10300;DHT22;5195;48.562;9.192;2022-12-28T17:36:34;10.10;47.50
10300;DHT22;5195;48.562;9.192;2022-12-28T17:39:10;10.00;48.10
10300;DHT22;5195;48.562;9.192;2022-12-28T17:41:46;9.70;49.80
10300;DHT22;5195;48.562;9.192;2022-12-28T17:44:22;9.40;50.40
10300;DHT22;5195;48.562;9.192;2022-12-28T17:46:57;9.50;50.00
10300;DHT22;5195;48.562;9.192;2022-12-28T17:49:33;9.60;50.00
10300;DHT22;5195;48.562;9.192;2022-12-28T17:52:09;9.60;50.00
10300;DHT22;5195;48.562;9.192;2022-12-28T17:54:45;9.60;50.30
10300;DHT22;5195;48.562;9.192;2022-12-28T17:57:21;9.70;49.70
10300;DHT22;5195;48.562;9.192;2022-12-28T17:59:57;9.90;49.20
10300;DHT22;5195;48.562;9.192;2022-12-28T18:02:33;9.80;49.60
10300;DHT22;5195;48.562;9.192;2022-12-28T18:05:10;9.80;49.60
10300;DHT22;5195;48.562;9.192;2022-12-28T18:07:46;9.70;50.10
10300;DHT22;5195;48.562;9.192;2022-12-28T18:10:23;10.00;48.30
10300;DHT22;5195;48.562;9.192;2022-12-28T18:13:01;9.90;49.10
10300;DHT22;5195;48.562;9.192;2022-12-28T18:15:37;10.10;47.50
10300;DHT22;5195;48.562;9.192;2022-12-28T18:18:13;10.30;47.30
10300;DHT22;5195;48.562;9.192;2022-12-28T18:21:03;10.40;46.80
10300;DHT22;5195;48.562;9.192;2022-12-28T18:23:35;10.20;47.50
10300;DHT22;5195;48.562;9.192;2022-12-28T18:26:13;10.10;47.40
10300;DHT22;5195;48.562;9.192;2022-12-28T18:28:46;10.30;47.30
10300;DHT22;5195;48.562;9.192;2022-12-28T18:31:22;10.10;47.90